Time;durP1;ratioP1;P1;durP2;ratioP2;P2;SDS_P1;SDS_P2;PMS_P1;PMS_P2;Temp;Humidity;BMP_temperature;BMP_pressure;BME280_temperature;BME280_humidity;BME280_pressure;Samples;Min_cycle;Max_cycle;Signal;HPM_P1;HPM_P2
2021/11/02 05:19:43;;;;;;;53.73;17.17;;;7.10;99.70;;;;;;5035660;28;20959;-65
2021/11/02 05:47:32;;;;;;;51.13;9.73;;;6.70;99.70;;;;;;5030603;28;20990;-65
2021/11/02 05:50:08;;;;;;;51.10;10.53;;;6.60;99.70;;;;;;5046358;28;20462;-65
2021/11/02 05:53:06;;;;;;;49.40;8.67;;;6.70;99.70;;;;;;5050479;28;20502;-65
2021/11/02 05:55:59;;;;;;;48.93;7.77;;;6.70;99.70;;;;;;5092774;22;20658;-67
2021/11/02 05:58:30;;;;;;;49.20;8.97;;;6.60;99.70;;;;;;5039067;28;20956;-66
2021/11/02 06:01:02;;;;;;;51.63;9.23;;;6.50;99.70;;;;;;5032822;28;20460;-67
2021/11/02 06:03:42;;;;;;;47.57;8.57;;;6.60;99.70;;;;;;5031295;28;20452;-66
2021/11/02 06:06:20;;;;;;;48.63;8.03;;;6.50;99.70;;;;;;5030517;28;20472;-67
2021/11/02 06:28:33;;;;;;;49.60;7.20;;;6.30;99.70;;;;;;5030841;28;20483;-66
2021/11/02 06:31:05;;;;;;;48.27;7.67;;;6.30;99.70;;;;;;5030638;28;20444;-67
2021/11/02 06:33:46;;;;;;;52.20;7.53;;;6.30;99.70;;;;;;5030101;28;20456;-67
2021/11/02 06:39:29;;;;;;;49.43;9.83;;;6.40;99.70;;;;;;5029479;28;20440;-67
2021/11/02 06:47:57;;;;;;;48.17;7.40;;;6.50;99.70;;;;;;5013843;28;20850;-66
2021/11/02 06:59:22;;;;;;;65.47;13.33;;;6.50;99.70;;;;;;5023887;28;20433;-67
2021/11/02 07:18:57;;;;;;;50.70;8.90;;;6.80;99.70;;;;;;5021939;28;20487;-66
2021/11/02 07:21:28;;;;;;;52.27;10.07;;;6.80;99.70;;;;;;5019322;28;20445;-67
2021/11/02 07:24:01;;;;;;;54.77;9.50;;;6.80;99.70;;;;;;5028306;28;20452;-67
2021/11/02 07:26:52;;;;;;;51.47;10.30;;;6.80;99.70;;;;;;5029176;28;21011;-66
2021/11/02 07:30:12;;;;;;;52.03;9.80;;;6.80;99.70;;;;;;5029782;28;20918;-66
2021/11/02 08:45:34;;;;;;;73.07;9.87;;;9.20;99.70;;;;;;5027628;28;20466;-68
2021/11/02 08:48:01;;;;;;;74.73;10.30;;;9.50;99.70;;;;;;5030773;28;20479;-68
2021/11/02 08:50:33;;;;;;;57.83;8.63;;;9.70;99.70;;;;;;5020965;28;20465;-69
2021/11/02 08:53:02;;;;;;;56.23;7.70;;;9.70;99.70;;;;;;5031397;28;20465;-68
2021/11/02 08:55:29;;;;;;;48.67;7.50;;;9.90;99.70;;;;;;5031973;28;20465;-69
2021/11/02 08:57:57;;;;;;;78.70;8.70;;;9.80;99.70;;;;;;5031618;28;20459;-69
2021/11/02 09:00:24;;;;;;;85.37;9.13;;;9.90;99.70;;;;;;5030355;28;20500;-69
2021/11/02 09:02:53;;;;;;;66.83;7.50;;;10.00;99.70;;;;;;5031365;28;20455;-68
2021/11/02 09:05:23;;;;;;;177.33;12.43;;;9.90;99.70;;;;;;5030853;28;20457;-68
2021/11/02 09:07:53;;;;;;;72.00;7.70;;;9.70;99.70;;;;;;5031737;28;20440;-68
2021/11/02 09:10:22;;;;;;;102.87;9.00;;;9.80;99.70;;;;;;5031474;28;20510;-68
2021/11/02 09:12:51;;;;;;;52.93;5.83;;;9.60;99.70;;;;;;5031763;28;20502;-68
2021/11/02 09:15:23;;;;;;;229.33;17.43;;;9.70;99.70;;;;;;5031227;28;20445;-68
2021/11/02 09:17:53;;;;;;;46.60;5.60;;;9.60;99.70;;;;;;5031647;28;20444;-69
2021/11/02 09:20:20;;;;;;;62.90;6.60;;;9.50;99.70;;;;;;5029845;28;20448;-69
2021/11/02 09:22:47;;;;;;;167.47;14.13;;;9.40;99.70;;;;;;5030826;28;20445;-68
2021/11/02 09:25:15;;;;;;;58.23;7.13;;;9.30;99.70;;;;;;5031186;28;20441;-68
2021/11/02 09:27:44;;;;;;;54.40;7.73;;;9.40;99.70;;;;;;5030672;28;20850;-69
2021/11/02 09:30:13;;;;;;;55.93;8.10;;;9.20;99.70;;;;;;5031571;28;20484;-69
2021/11/02 09:32:42;;;;;;;57.30;7.53;;;9.30;99.70;;;;;;5020094;28;20944;-69
2021/11/02 09:35:08;;;;;;;54.73;7.33;;;9.30;99.70;;;;;;5031419;28;20453;-66
2021/11/02 09:37:37;;;;;;;50.47;7.60;;;9.20;99.70;;;;;;5030126;28;20460;-68
2021/11/02 09:40:11;;;;;;;49.80;7.23;;;9.20;99.70;;;;;;5031359;28;20448;-69
2021/11/02 09:43:22;;;;;;;50.07;8.00;;;9.20;99.70;;;;;;5031362;28;20477;-69
2021/11/02 09:46:26;;;;;;;49.03;7.73;;;9.10;99.70;;;;;;5030470;28;20473;-68
2021/11/02 09:49:23;;;;;;;52.90;8.33;;;9.10;99.70;;;;;;5031006;28;20484;-68
2021/11/02 09:52:30;;;;;;;49.47;8.23;;;9.10;99.70;;;;;;5030245;28;20449;-69
2021/11/02 09:55:31;;;;;;;51.77;8.20;;;9.30;99.70;;;;;;5010733;28;20449;-69
2021/11/02 09:58:16;;;;;;;48.20;7.40;;;9.40;99.70;;;;;;5011144;28;20477;-68
2021/11/02 10:01:02;;;;;;;48.80;7.23;;;9.30;99.70;;;;;;5011124;28;20449;-69
2021/11/02 10:04:02;;;;;;;49.40;7.27;;;9.30;99.70;;;;;;5028459;28;20947;-68
2021/11/02 10:06:47;;;;;;;48.53;7.50;;;9.40;99.70;;;;;;5030410;28;20469;-68
2021/11/02 10:09:27;;;;;;;47.40;6.87;;;9.60;99.70;;;;;;5025087;28;20484;-68
2021/11/02 10:12:01;;;;;;;49.27;7.73;;;9.50;99.70;;;;;;5018582;28;20484;-68
2021/11/02 10:14:43;;;;;;;46.70;6.63;;;9.40;99.70;;;;;;5023841;28;20454;-69
2021/11/02 10:17:34;;;;;;;48.57;7.10;;;9.50;99.70;;;;;;5015071;28;20480;-69
2021/11/02 10:20:07;;;;;;;48.60;7.00;;;9.50;99.70;;;;;;4999622;28;20810;-69
2021/11/02 10:22:56;;;;;;;47.60;7.03;;;9.60;99.70;;;;;;5027377;28;20445;-68
2021/11/02 10:26:01;;;;;;;50.70;7.73;;;9.50;99.70;;;;;;5029927;28;20496;-69
2021/11/02 10:28:52;;;;;;;46.43;7.37;;;9.60;99.70;;;;;;5029902;28;20959;-69
2021/11/02 10:31:32;;;;;;;50.00;7.10;;;9.50;99.70;;;;;;5030612;28;21011;-69
2021/11/02 10:34:03;;;;;;;47.27;7.30;;;9.50;99.70;;;;;;5027386;28;20917;-69
2021/11/02 10:36:36;;;;;;;47.70;6.77;;;9.60;99.70;;;;;;5029377;28;20468;-69
2021/11/02 10:39:17;;;;;;;48.43;7.77;;;9.60;99.70;;;;;;5022126;28;20465;-69
2021/11/02 10:41:56;;;;;;;48.90;7.93;;;9.60;99.70;;;;;;5006745;28;20600;-69
2021/11/02 10:44:30;;;;;;;50.03;7.90;;;9.60;99.70;;;;;;5013630;28;20449;-69
2021/11/02 10:47:03;;;;;;;49.67;8.43;;;9.50;99.70;;;;;;5030076;28;20476;-69
2021/11/02 10:49:35;;;;;;;48.00;8.30;;;9.40;99.70;;;;;;5025086;28;20505;-69
2021/11/02 10:52:05;;;;;;;50.00;7.93;;;9.40;99.70;;;;;;5022268;28;20457;-69
2021/11/02 10:54:52;;;;;;;48.30;7.40;;;9.70;99.70;;;;;;5028811;28;20456;-68
2021/11/02 10:57:45;;;;;;;48.17;7.57;;;9.70;99.70;;;;;;5019555;28;20945;-69
2021/11/02 11:00:12;;;;;;;51.87;9.70;;;9.60;99.70;;;;;;5018999;28;20829;-68
2021/11/02 11:02:43;;;;;;;50.47;8.43;;;9.70;99.70;;;;;;5022698;28;20465;-69
2021/11/02 11:05:11;;;;;;;50.67;8.53;;;9.70;99.70;;;;;;5016249;28;20464;-68
2021/11/02 11:07:39;;;;;;;49.87;8.33;;;9.90;99.70;;;;;;5021944;28;20460;-68
2021/11/02 11:10:09;;;;;;;48.27;8.27;;;9.70;99.70;;;;;;5029911;28;20515;-68
2021/11/02 11:12:37;;;;;;;49.57;8.13;;;9.70;99.70;;;;;;5024069;28;20460;-69
2021/11/02 11:15:06;;;;;;;48.00;8.00;;;9.60;99.70;;;;;;5020896;28;20464;-68
2021/11/02 11:17:34;;;;;;;49.97;7.80;;;9.70;99.70;;;;;;5020611;28;20464;-68
2021/11/02 11:20:07;;;;;;;48.40;8.23;;;9.80;99.70;;;;;;5021145;28;20972;-69
2021/11/02 11:22:39;;;;;;;50.20;9.27;;;9.90;99.70;;;;;;5018763;28;20976;-69
2021/11/02 11:25:10;;;;;;;48.63;7.60;;;9.70;99.70;;;;;;5019220;28;20994;-69
2021/11/02 11:27:43;;;;;;;51.20;9.90;;;9.60;99.70;;;;;;5014395;28;20454;-69
2021/11/02 11:30:11;;;;;;;49.63;8.47;;;9.60;99.70;;;;;;5009843;28;20996;-68
2021/11/02 11:32:38;;;;;;;50.27;8.50;;;9.60;99.70;;;;;;5016896;28;20441;-68
2021/11/02 11:35:08;;;;;;;54.53;8.33;;;9.60;99.70;;;;;;5028399;28;20983;-68
2021/11/02 11:37:39;;;;;;;49.20;8.47;;;9.70;99.70;;;;;;5026365;28;20456;-68
2021/11/02 11:40:09;;;;;;;48.17;8.30;;;9.80;99.70;;;;;;5022398;28;20445;-68
2021/11/02 11:42:39;;;;;;;51.63;9.17;;;9.90;99.70;;;;;;5016182;28;20460;-68
2021/11/02 11:45:11;;;;;;;48.40;7.57;;;10.00;99.70;;;;;;5028156;28;20448;-68
2021/11/02 11:47:38;;;;;;;49.10;8.30;;;10.10;99.70;;;;;;5028960;28;20833;-68
2021/11/02 11:50:25;;;;;;;50.77;7.43;;;10.20;99.70;;;;;;5029533;28;20472;-68
2021/11/02 11:52:54;;;;;;;47.20;7.40;;;10.20;99.70;;;;;;5025398;28;20472;-68
2021/11/02 11:55:25;;;;;;;47.53;7.40;;;10.20;99.70;;;;;;5027981;28;20432;-68
2021/11/02 11:58:04;;;;;;;45.80;7.30;;;10.20;99.70;;;;;;5028747;28;20460;-68
2021/11/02 12:00:32;;;;;;;46.50;7.23;;;10.30;99.70;;;;;;5029331;28;20812;-68
2021/11/02 12:03:04;;;;;;;44.67;5.93;;;10.30;99.70;;;;;;5029167;28;20444;-68
2021/11/02 12:05:32;;;;;;;45.67;6.80;;;10.50;99.70;;;;;;5026657;28;20503;-68
2021/11/02 12:08:07;;;;;;;45.63;6.57;;;10.50;99.70;;;;;;5018721;28;20452;-68
2021/11/02 12:10:36;;;;;;;44.60;6.23;;;10.70;99.70;;;;;;5027336;28;20503;-68
2021/11/02 12:13:07;;;;;;;47.27;6.23;;;10.80;99.70;;;;;;5028474;28;20452;-67
2021/11/02 12:15:49;;;;;;;43.47;4.70;;;10.90;99.70;;;;;;5028926;28;20461;-68
2021/11/02 12:18:17;;;;;;;43.37;5.00;;;10.80;99.70;;;;;;5028416;28;20536;-67
2021/11/02 12:20:44;;;;;;;43.67;4.67;;;10.80;99.70;;;;;;5043430;28;20970;-68
2021/11/02 12:23:19;;;;;;;44.70;4.93;;;10.70;99.70;;;;;;5039475;28;20506;-67
2021/11/02 12:25:53;;;;;;;43.17;4.90;;;10.60;99.70;;;;;;5030569;28;20495;-67
2021/11/02 12:28:30;;;;;;;43.67;5.47;;;10.60;99.70;;;;;;5031022;28;20459;-67
2021/11/02 12:31:01;;;;;;;43.23;4.43;;;10.60;99.70;;;;;;5022869;28;21222;-67
2021/11/02 12:33:28;;;;;;;43.07;5.00;;;10.50;99.70;;;;;;5021338;28;20468;-67
2021/11/02 12:35:57;;;;;;;45.30;5.50;;;10.50;99.70;;;;;;5032342;28;20475;-67
2021/11/02 12:38:32;;;;;;;43.57;5.87;;;10.50;99.70;;;;;;5031284;28;20463;-68
2021/11/02 12:41:01;;;;;;;44.90;6.03;;;10.40;99.70;;;;;;5021649;28;20450;-67
2021/11/02 12:43:29;;;;;;;43.87;5.20;;;10.40;99.70;;;;;;5026785;28;20826;-67
2021/11/02 12:45:57;;;;;;;43.53;4.90;;;10.40;99.70;;;;;;5020035;28;20489;-67
2021/11/02 12:48:25;;;;;;;44.20;5.83;;;10.30;99.70;;;;;;5014619;28;20519;-67
2021/11/02 12:50:53;;;;;;;43.20;5.23;;;10.40;99.70;;;;;;5030739;28;20571;-68
2021/11/02 12:53:21;;;;;;;43.87;5.90;;;10.10;99.70;;;;;;5028561;28;20444;-68
2021/11/02 12:55:48;;;;;;;43.73;5.33;;;10.20;99.70;;;;;;5029818;28;20468;-68
2021/11/02 12:58:18;;;;;;;43.80;6.23;;;10.10;99.70;;;;;;5031742;28;20459;-68
2021/11/02 13:00:50;;;;;;;43.40;5.33;;;10.10;99.70;;;;;;5027137;28;20443;-68
2021/11/02 13:03:25;;;;;;;43.57;5.20;;;10.10;99.70;;;;;;5031017;28;20529;-68
2021/11/02 13:05:57;;;;;;;43.70;5.80;;;10.20;99.70;;;;;;5019246;28;20551;-68
2021/11/02 13:08:35;;;;;;;43.67;5.80;;;10.40;99.70;;;;;;5011456;28;20452;-68
2021/11/02 13:11:07;;;;;;;43.50;5.43;;;10.60;99.70;;;;;;5018843;28;20481;-68
2021/11/02 13:13:59;;;;;;;43.57;5.53;;;10.70;99.70;;;;;;5027027;28;20464;-67
2021/11/02 13:16:28;;;;;;;43.97;5.80;;;10.80;99.70;;;;;;5022849;28;20813;-68
2021/11/02 13:18:55;;;;;;;43.90;5.70;;;11.00;99.70;;;;;;5027132;28;20484;-68
2021/11/02 13:21:29;;;;;;;43.47;5.70;;;11.00;99.70;;;;;;5017663;28;20437;-68
2021/11/02 13:24:03;;;;;;;42.93;4.77;;;10.90;99.70;;;;;;5031342;28;20870;-69
2021/11/02 13:26:31;;;;;;;46.30;5.67;;;11.00;99.70;;;;;;5029929;28;20460;-68
2021/11/02 13:29:11;;;;;;;44.10;5.13;;;10.90;99.70;;;;;;5026080;28;20472;-67
2021/11/02 13:31:38;;;;;;;43.20;5.03;;;10.80;99.70;;;;;;5024782;28;20440;-67
2021/11/02 13:34:08;;;;;;;43.70;5.50;;;10.70;99.70;;;;;;5026481;28;20444;-68
2021/11/02 13:36:36;;;;;;;43.20;5.07;;;10.70;99.70;;;;;;5021632;28;20484;-68
2021/11/02 13:39:04;;;;;;;43.73;5.13;;;10.60;99.70;;;;;;5026136;28;20834;-67
2021/11/02 13:41:32;;;;;;;43.20;4.90;;;10.50;99.70;;;;;;5023832;28;20841;-67
2021/11/02 13:44:03;;;;;;;43.10;4.70;;;10.40;99.70;;;;;;5020579;28;20959;-68
2021/11/02 13:46:33;;;;;;;43.93;5.67;;;10.20;99.70;;;;;;5021945;28;20481;-67
2021/11/02 13:49:01;;;;;;;43.20;4.83;;;10.10;99.70;;;;;;5023392;28;20461;-68
2021/11/02 13:51:28;;;;;;;43.30;5.33;;;10.00;99.70;;;;;;5025522;28;20488;-68
2021/11/02 13:53:55;;;;;;;45.07;4.73;;;9.90;99.70;;;;;;5021658;28;20456;-67
2021/11/02 13:56:24;;;;;;;44.13;4.40;;;9.80;99.70;;;;;;5020704;28;20469;-67
2021/11/02 13:58:51;;;;;;;44.17;5.80;;;9.70;99.70;;;;;;5018743;28;20438;-68
2021/11/02 14:01:23;;;;;;;44.27;6.20;;;9.80;99.70;;;;;;5019627;28;20461;-67
2021/11/02 14:03:58;;;;;;;44.03;5.53;;;9.80;99.70;;;;;;5021341;28;20963;-68
2021/11/02 14:06:26;;;;;;;44.20;5.97;;;9.80;99.70;;;;;;5018245;28;20460;-68
2021/11/02 14:08:55;;;;;;;45.90;5.37;;;9.60;99.70;;;;;;5018902;28;20860;-67
2021/11/02 14:11:24;;;;;;;43.27;4.73;;;9.60;99.70;;;;;;5018956;28;20573;-68
2021/11/02 14:13:56;;;;;;;43.67;5.00;;;9.70;99.70;;;;;;5018826;28;20444;-67
2021/11/02 14:16:37;;;;;;;47.17;6.70;;;9.70;99.70;;;;;;5018829;28;20465;-68
2021/11/02 14:19:27;;;;;;;45.77;6.50;;;9.70;99.70;;;;;;5009237;28;20528;-67
2021/11/02 14:21:55;;;;;;;44.60;6.00;;;9.60;99.70;;;;;;5008736;28;20453;-67
2021/11/02 14:24:32;;;;;;;45.00;6.03;;;9.60;99.70;;;;;;5029452;28;20452;-67
2021/11/02 14:26:59;;;;;;;44.90;6.57;;;9.70;99.70;;;;;;5010711;28;20481;-67
2021/11/02 14:29:47;;;;;;;43.97;6.10;;;9.90;99.70;;;;;;5014718;28;20550;-68
2021/11/02 14:32:49;;;;;;;44.10;5.70;;;10.00;99.70;;;;;;5030456;28;20463;-68
2021/11/02 14:35:54;;;;;;;44.40;6.53;;;10.10;99.70;;;;;;5010061;28;20531;-68
2021/11/02 14:38:24;;;;;;;44.47;6.20;;;9.90;99.70;;;;;;5017387;28;20502;-68
2021/11/02 14:40:52;;;;;;;44.30;5.47;;;9.90;99.70;;;;;;5030119;28;20931;-68
2021/11/02 14:43:25;;;;;;;44.50;5.60;;;9.90;99.70;;;;;;5029843;28;20825;-68
2021/11/02 14:45:54;;;;;;;44.60;5.93;;;10.00;99.70;;;;;;5029585;28;20877;-68
2021/11/02 14:48:50;;;;;;;43.50;5.20;;;10.00;99.70;;;;;;5030028;28;20451;-67
2021/11/02 14:51:27;;;;;;;44.20;5.90;;;9.80;99.70;;;;;;5024431;28;20512;-68
2021/11/02 14:53:57;;;;;;;44.87;5.87;;;9.90;99.70;;;;;;5025885;28;20452;-67
2021/11/02 14:56:33;;;;;;;44.10;6.40;;;9.70;99.70;;;;;;5018470;28;20472;-67
2021/11/02 14:59:00;;;;;;;43.90;5.90;;;9.70;99.70;;;;;;5019354;28;20693;-67
2021/11/02 15:01:43;;;;;;;43.80;5.27;;;9.70;99.70;;;;;;5023570;28;20503;-68
2021/11/02 15:04:14;;;;;;;44.87;5.60;;;9.80;99.70;;;;;;5019722;28;20452;-67
2021/11/02 15:06:43;;;;;;;45.03;6.63;;;9.90;99.70;;;;;;5010232;28;20842;-68
2021/11/02 15:09:13;;;;;;;44.40;6.20;;;9.80;99.70;;;;;;5011523;28;20456;-68
2021/11/02 15:11:41;;;;;;;44.00;6.37;;;9.60;99.70;;;;;;5025341;28;20881;-67
2021/11/02 15:14:14;;;;;;;45.10;6.50;;;9.70;99.70;;;;;;5027634;28;20441;-67
2021/11/02 15:16:42;;;;;;;43.77;6.07;;;9.60;99.70;;;;;;5029255;28;20530;-68
2021/11/02 15:19:11;;;;;;;44.10;5.80;;;9.50;99.70;;;;;;5029406;28;20448;-67
2021/11/02 15:21:40;;;;;;;43.93;5.87;;;9.50;99.70;;;;;;5029785;28;20464;-67
2021/11/02 15:24:18;;;;;;;44.10;5.80;;;9.60;99.70;;;;;;5030160;28;20479;-67
2021/11/02 15:26:49;;;;;;;44.63;6.57;;;9.50;99.70;;;;;;5029744;28;20980;-67
2021/11/02 15:29:16;;;;;;;44.53;6.83;;;9.50;99.70;;;;;;5030077;28;20444;-66
2021/11/02 15:31:54;;;;;;;44.50;6.53;;;9.50;99.70;;;;;;5029467;28;20472;-67
2021/11/02 15:34:21;;;;;;;45.43;6.53;;;9.40;99.70;;;;;;5029861;28;20478;-68
2021/11/02 15:36:48;;;;;;;44.80;7.20;;;9.30;99.70;;;;;;5029343;28;20985;-67
2021/11/02 15:39:14;;;;;;;44.50;6.37;;;9.30;99.70;;;;;;5030096;28;20970;-67
2021/11/02 15:41:41;;;;;;;45.33;6.20;;;9.20;99.70;;;;;;5029519;28;20441;-68
2021/11/02 15:44:13;;;;;;;44.97;6.47;;;9.20;99.70;;;;;;5029854;28;20818;-67
2021/11/02 15:46:41;;;;;;;44.70;6.73;;;9.30;99.70;;;;;;5029780;28;20461;-68
2021/11/02 15:49:09;;;;;;;44.90;5.87;;;9.40;99.70;;;;;;5030102;28;20449;-67
2021/11/02 15:51:38;;;;;;;44.10;6.00;;;9.30;99.70;;;;;;5029115;28;20480;-67
2021/11/02 15:54:10;;;;;;;44.40;6.23;;;9.30;99.70;;;;;;5030547;28;21032;-68
2021/11/02 15:56:37;;;;;;;44.77;7.10;;;9.10;99.70;;;;;;5027240;28;21151;-67
2021/11/02 15:59:06;;;;;;;44.30;6.43;;;9.30;99.70;;;;;;5022352;28;20518;-68
2021/11/02 16:01:40;;;;;;;44.63;7.20;;;9.30;99.70;;;;;;5017948;28;20480;-68
2021/11/02 16:04:16;;;;;;;44.87;6.77;;;9.20;99.70;;;;;;5033045;28;20965;-68
2021/11/02 16:07:01;;;;;;;44.80;6.63;;;9.10;99.70;;;;;;5033088;28;20468;-67
2021/11/02 16:09:47;;;;;;;44.57;7.10;;;8.80;99.70;;;;;;5033396;28;20445;-68
2021/11/02 16:12:18;;;;;;;45.97;8.13;;;8.70;99.70;;;;;;5031526;28;20484;-67
2021/11/02 16:14:54;;;;;;;45.67;8.33;;;8.60;99.70;;;;;;5032866;28;20445;-68
2021/11/02 16:17:23;;;;;;;45.20;7.50;;;8.30;99.70;;;;;;5032816;28;20501;-67
2021/11/02 16:19:51;;;;;;;46.10;8.30;;;8.20;99.70;;;;;;5033002;28;20440;-68
2021/11/02 16:22:19;;;;;;;46.40;9.30;;;8.10;99.70;;;;;;5032421;28;20814;-68
2021/11/02 16:24:46;;;;;;;46.63;8.90;;;8.20;99.70;;;;;;5032683;28;20456;-67
2021/11/02 16:27:20;;;;;;;48.70;8.33;;;8.10;99.70;;;;;;5032762;28;20472;-67
2021/11/02 16:29:48;;;;;;;49.20;8.80;;;8.10;99.70;;;;;;5032698;28;20947;-67
2021/11/02 16:32:25;;;;;;;54.27;10.73;;;8.10;99.70;;;;;;5032254;28;20983;-66
2021/11/02 16:34:52;;;;;;;50.63;10.90;;;8.00;99.70;;;;;;5032524;28;20455;-68
2021/11/02 16:37:33;;;;;;;53.60;11.20;;;8.00;99.70;;;;;;5032461;28;20449;-67
2021/11/02 16:40:21;;;;;;;54.47;11.20;;;7.90;99.70;;;;;;5032549;28;20753;-68
2021/11/02 16:43:02;;;;;;;51.00;11.13;;;7.70;99.70;;;;;;5032406;28;20452;-68
2021/11/02 16:45:35;;;;;;;50.13;10.90;;;7.60;99.70;;;;;;5032300;28;20474;-67
2021/11/02 16:48:05;;;;;;;48.90;9.87;;;7.50;99.70;;;;;;5029257;28;20476;-67
2021/11/02 16:50:35;;;;;;;49.43;9.90;;;7.40;99.70;;;;;;5031850;28;20444;-68
2021/11/02 16:53:22;;;;;;;50.03;9.33;;;7.30;99.70;;;;;;5031805;28;20835;-67
2021/11/02 16:55:49;;;;;;;49.20;9.80;;;7.40;99.70;;;;;;5031791;28;20472;-67
2021/11/02 16:58:34;;;;;;;49.87;9.63;;;7.30;99.70;;;;;;5032103;28;20452;-67
2021/11/02 17:01:27;;;;;;;49.10;8.93;;;7.30;99.70;;;;;;5030870;28;20437;-67
2021/11/02 17:03:58;;;;;;;50.10;9.47;;;7.40;99.70;;;;;;5008187;28;20456;-67
2021/11/02 17:06:32;;;;;;;50.07;8.10;;;7.50;99.70;;;;;;5030840;28;20563;-67
2021/11/02 17:09:14;;;;;;;46.57;7.53;;;7.60;99.70;;;;;;5032350;28;20498;-68
2021/11/02 17:11:51;;;;;;;50.87;7.90;;;7.60;99.70;;;;;;5029810;28;20484;-67
2021/11/02 17:14:19;;;;;;;47.57;7.77;;;7.60;99.70;;;;;;5032057;28;20463;-68
2021/11/02 17:16:50;;;;;;;47.30;9.00;;;7.70;99.70;;;;;;5031566;28;20461;-68
2021/11/02 17:19:20;;;;;;;45.97;8.00;;;7.80;99.70;;;;;;5032011;28;20899;-67
2021/11/02 17:21:51;;;;;;;46.40;8.20;;;7.80;99.70;;;;;;5027713;28;20876;-67
2021/11/02 17:24:18;;;;;;;47.07;7.83;;;7.80;99.70;;;;;;5021450;28;20984;-68
2021/11/02 17:26:45;;;;;;;48.20;9.10;;;7.80;99.70;;;;;;5018347;28;20481;-67
2021/11/02 17:29:13;;;;;;;48.17;9.47;;;7.80;99.70;;;;;;5021635;28;20775;-68
2021/11/02 17:31:44;;;;;;;48.80;9.93;;;7.70;99.70;;;;;;5021612;28;20478;-67
2021/11/02 17:34:23;;;;;;;49.70;10.17;;;7.70;99.70;;;;;;5023673;28;20473;-68
2021/11/02 17:37:05;;;;;;;51.00;9.83;;;7.70;99.70;;;;;;5023729;28;20476;-67
2021/11/02 17:39:37;;;;;;;53.07;10.47;;;7.70;99.70;;;;;;5019803;28;20450;-67
2021/11/02 17:42:06;;;;;;;50.17;9.27;;;7.60;99.70;;;;;;5023829;28;20550;-67
2021/11/02 17:44:35;;;;;;;49.40;10.07;;;7.60;99.70;;;;;;5018860;28;20456;-67
2021/11/02 17:47:02;;;;;;;50.30;10.40;;;7.60;99.70;;;;;;5019523;28;20481;-67
2021/11/02 17:49:31;;;;;;;49.30;9.67;;;7.70;99.70;;;;;;5028303;28;20555;-67
2021/11/02 17:51:58;;;;;;;53.07;10.57;;;7.70;99.70;;;;;;5030323;28;20488;-67
2021/11/02 17:54:26;;;;;;;65.37;15.10;;;7.70;99.70;;;;;;5028128;28;20548;-67
2021/11/02 17:56:54;;;;;;;63.87;14.77;;;7.80;99.70;;;;;;5022696;28;20485;-67
2021/11/02 17:59:23;;;;;;;65.13;13.20;;;7.80;99.70;;;;;;5016403;28;20460;-67
2021/11/02 18:01:53;;;;;;;59.67;13.33;;;7.80;99.70;;;;;;5017037;28;20451;-67
2021/11/02 18:04:20;;;;;;;61.23;13.70;;;7.80;99.70;;;;;;5013871;28;20488;-67
2021/11/02 18:06:48;;;;;;;66.17;16.33;;;7.70;99.70;;;;;;5030012;28;20815;-67
2021/11/02 18:09:15;;;;;;;64.87;15.50;;;7.60;99.70;;;;;;5027727;28;20523;-67
2021/11/02 18:11:43;;;;;;;74.20;17.43;;;7.60;99.70;;;;;;5012582;28;20495;-68
2021/11/02 18:14:11;;;;;;;98.90;26.67;;;7.60;99.70;;;;;;5024210;28;20467;-66
2021/11/02 18:16:39;;;;;;;78.87;22.70;;;7.70;99.70;;;;;;5019135;28;20457;-67
2021/11/02 18:19:06;;;;;;;68.03;17.67;;;7.70;99.70;;;;;;5019688;28;20878;-67
2021/11/02 18:21:33;;;;;;;65.70;16.13;;;7.70;99.70;;;;;;5014859;28;20964;-67
2021/11/02 18:24:04;;;;;;;63.87;16.40;;;7.70;99.70;;;;;;5025914;28;20452;-67
2021/11/02 18:26:31;;;;;;;77.53;17.33;;;7.70;99.70;;;;;;5027890;28;20480;-67
2021/11/02 18:28:59;;;;;;;64.10;17.30;;;7.60;99.70;;;;;;5016879;28;20456;-67
2021/11/02 18:31:26;;;;;;;66.10;16.50;;;7.50;99.70;;;;;;5029240;28;20520;-67
2021/11/02 18:33:54;;;;;;;61.17;14.53;;;7.40;99.70;;;;;;5027610;28;20584;-67
2021/11/02 18:36:22;;;;;;;60.43;14.47;;;7.30;99.70;;;;;;5022369;28;20663;-67
2021/11/02 18:38:50;;;;;;;70.27;16.60;;;7.20;99.70;;;;;;5024391;28;20461;-67
2021/11/02 18:41:18;;;;;;;74.37;17.77;;;7.00;99.70;;;;;;5022192;28;20443;-67
2021/11/02 18:43:46;;;;;;;71.83;17.07;;;7.00;99.70;;;;;;5019951;28;20452;-67
2021/11/02 18:46:13;;;;;;;89.30;22.77;;;7.00;99.70;;;;;;5029593;28;20461;-67
2021/11/02 18:48:40;;;;;;;89.53;22.03;;;6.90;99.70;;;;;;5025196;28;20441;-67
2021/11/02 18:51:08;;;;;;;67.63;17.20;;;6.90;99.70;;;;;;5009806;28;20459;-67
2021/11/02 18:53:35;;;;;;;66.97;16.50;;;6.80;99.70;;;;;;5026625;28;20472;-67
2021/11/02 18:56:02;;;;;;;87.40;22.63;;;7.00;99.70;;;;;;5028886;28;20571;-67
2021/11/02 18:58:30;;;;;;;66.23;17.20;;;6.90;99.70;;;;;;5015572;28;20853;-67
2021/11/02 19:00:57;;;;;;;68.30;18.47;;;7.00;99.70;;;;;;5019352;28;20441;-67
2021/11/02 19:03:24;;;;;;;71.73;20.40;;;6.90;99.70;;;;;;5022176;28;20467;-67
2021/11/02 19:05:51;;;;;;;75.83;23.50;;;6.80;99.70;;;;;;5020190;28;20494;-67
2021/11/02 19:08:18;;;;;;;69.90;18.50;;;6.80;99.70;;;;;;5021378;28;20463;-67
2021/11/02 19:10:47;;;;;;;74.17;20.00;;;6.70;99.70;;;;;;5021940;28;20452;-67
2021/11/02 19:13:14;;;;;;;71.57;17.73;;;6.80;99.70;;;;;;5022467;28;20487;-67
2021/11/02 19:15:42;;;;;;;110.80;27.43;;;6.70;99.70;;;;;;5020675;28;20471;-67
2021/11/02 19:18:11;;;;;;;85.70;21.10;;;6.60;99.70;;;;;;5020905;28;20452;-67
2021/11/02 19:20:38;;;;;;;94.03;23.60;;;6.60;99.70;;;;;;5026431;28;20445;-67
2021/11/02 19:23:05;;;;;;;94.13;23.30;;;6.60;99.70;;;;;;5027924;28;20441;-68
2021/11/02 19:25:33;;;;;;;79.37;21.37;;;6.50;99.70;;;;;;5026735;28;20550;-67
2021/11/02 19:28:00;;;;;;;72.17;18.73;;;6.50;99.70;;;;;;5028901;28;20492;-67
2021/11/02 19:30:27;;;;;;;68.00;18.17;;;6.50;99.70;;;;;;5027554;28;20472;-67
2021/11/02 19:32:55;;;;;;;75.13;20.00;;;6.50;99.70;;;;;;5033412;28;20491;-68
2021/11/02 19:35:23;;;;;;;70.60;18.57;;;6.40;99.70;;;;;;5033868;28;20448;-67
2021/11/02 19:37:49;;;;;;;75.83;19.13;;;6.30;99.70;;;;;;5016290;28;20445;-67
2021/11/02 19:40:16;;;;;;;84.17;22.23;;;6.40;99.70;;;;;;5016390;28;20452;-67
2021/11/02 19:42:44;;;;;;;99.03;25.23;;;6.30;99.70;;;;;;5023091;28;20440;-67
2021/11/02 19:45:11;;;;;;;163.80;38.63;;;6.40;99.70;;;;;;5026310;28;20437;-67
2021/11/02 19:47:43;;;;;;;138.27;36.13;;;6.30;99.70;;;;;;5028593;28;20587;-67
2021/11/02 19:50:12;;;;;;;84.27;23.13;;;6.30;99.70;;;;;;5033454;28;20975;-67
2021/11/02 19:52:41;;;;;;;70.67;18.80;;;6.40;99.70;;;;;;5062094;22;21000;-64
2021/11/02 19:55:09;;;;;;;68.90;18.90;;;6.70;99.70;;;;;;5029489;28;20972;-64
2021/11/02 19:57:36;;;;;;;70.20;19.17;;;6.50;99.70;;;;;;5022611;28;20456;-65
2021/11/02 20:00:03;;;;;;;59.70;14.70;;;6.50;99.70;;;;;;5029312;28;20544;-64
2021/11/02 20:02:30;;;;;;;67.60;15.90;;;6.40;99.70;;;;;;5026931;28;20837;-65
2021/11/02 20:04:57;;;;;;;64.70;17.37;;;6.40;99.70;;;;;;5032015;28;20977;-64
2021/11/02 20:07:31;;;;;;;60.20;15.83;;;6.50;99.70;;;;;;5032103;28;20866;-65
2021/11/02 20:10:02;;;;;;;56.67;13.77;;;6.50;99.70;;;;;;5032783;28;20436;-65
2021/11/02 20:12:30;;;;;;;57.10;13.50;;;6.40;99.70;;;;;;5029407;28;20484;-66
2021/11/02 20:15:01;;;;;;;57.50;13.03;;;6.30;99.70;;;;;;5032478;28;20495;-66
2021/11/02 20:17:29;;;;;;;56.20;13.40;;;6.30;99.70;;;;;;5031608;28;20575;-64
2021/11/02 20:19:57;;;;;;;59.00;12.60;;;6.40;99.70;;;;;;5032023;28;20451;-64
2021/11/02 20:22:27;;;;;;;52.73;10.07;;;6.40;99.70;;;;;;5027794;28;20562;-65
2021/11/02 20:24:55;;;;;;;52.30;11.53;;;6.50;99.70;;;;;;5031202;28;20449;-64
2021/11/02 20:27:25;;;;;;;52.07;11.50;;;6.60;99.70;;;;;;5029829;28;20441;-64
2021/11/02 20:29:53;;;;;;;56.40;13.40;;;6.60;99.70;;;;;;5032072;28;20463;-65
2021/11/02 20:32:20;;;;;;;53.77;11.10;;;6.80;99.70;;;;;;5031778;28;20849;-66
2021/11/02 20:34:47;;;;;;;57.10;13.40;;;7.00;99.70;;;;;;5032168;28;20448;-65
2021/11/02 20:37:15;;;;;;;60.13;15.90;;;7.00;99.70;;;;;;5031695;28;20440;-65
2021/11/02 20:39:47;;;;;;;56.30;14.40;;;7.00;99.70;;;;;;5028616;28;20461;-65
2021/11/02 20:42:17;;;;;;;60.17;15.87;;;7.00;99.70;;;;;;5028886;28;20452;-65
2021/11/02 20:44:49;;;;;;;56.07;17.77;;;7.00;99.70;;;;;;5029775;28;20445;-63
2021/11/02 20:47:17;;;;;;;60.40;17.73;;;7.10;99.70;;;;;;5030650;28;20876;-63
2021/11/02 20:49:50;;;;;;;56.40;15.70;;;7.00;99.70;;;;;;5031868;28;20444;-64
2021/11/02 20:52:18;;;;;;;56.83;15.33;;;7.20;99.70;;;;;;5031611;28;20854;-63
2021/11/02 20:54:47;;;;;;;62.27;16.63;;;7.30;99.70;;;;;;5029673;28;20466;-64
2021/11/02 20:57:17;;;;;;;62.40;19.10;;;7.10;99.70;;;;;;5029634;28;20460;-63
2021/11/02 20:59:44;;;;;;;62.53;19.23;;;7.10;99.70;;;;;;5029607;28;20436;-65